Time;durP1;ratioP1;P1;durP2;ratioP2;P2;SDS_P1;SDS_P2;PMS_P1;PMS_P2;Temp;Humidity;BMP_temperature;BMP_pressure;BME280_temperature;BME280_humidity;BME280_pressure;Samples;Min_cycle;Max_cycle;Signal;HPM_P1;HPM_P2
2023/02/23 00:02:03;;;;;;;15.18;6.45;;;3.90;99.90;;;2.07;92.72;101130.78;4975982;28;20060;-80
2023/02/23 00:04:34;;;;;;;15.80;6.05;;;3.90;99.90;;;2.07;92.78;101131.66;4987149;28;20025;-80
2023/02/23 00:07:00;;;;;;;20.23;8.98;;;3.80;99.90;;;2.07;92.81;101130.78;4967148;28;20051;-79
2023/02/23 00:09:33;;;;;;;24.15;9.13;;;3.80;99.90;;;2.01;92.93;101122.16;4934148;28;20521;-80
2023/02/23 00:12:06;;;;;;;24.48;9.50;;;3.80;99.90;;;2.01;92.67;101122.16;4962628;28;20501;-80
2023/02/23 00:14:40;;;;;;;22.85;8.02;;;3.70;99.90;;;1.99;92.75;101120.47;4958129;28;20467;-79
2023/02/23 00:17:13;;;;;;;34.47;8.57;;;3.80;99.90;;;2.01;92.85;101123.91;4984015;23;20684;-79
2023/02/23 00:19:49;;;;;;;21.00;9.23;;;3.70;99.90;;;1.96;93.15;101117.84;4957011;28;20414;-80
2023/02/23 00:22:15;;;;;;;26.40;10.40;;;3.70;99.90;;;1.98;92.59;101110.91;4967130;28;20678;-80
2023/02/23 00:24:49;;;;;;;26.17;9.90;;;3.70;99.90;;;1.96;93.05;101099.69;4949010;28;20127;-79
2023/02/23 00:27:19;;;;;;;28.27;10.52;;;3.70;99.90;;;1.94;92.94;101107.47;4974430;28;20506;-79
2023/02/23 00:29:53;;;;;;;25.90;10.35;;;3.70;99.90;;;1.89;92.96;101114.44;4944166;28;20033;-80
2023/02/23 00:32:19;;;;;;;24.52;10.40;;;3.60;99.90;;;1.90;93.08;101092.81;4928751;28;20035;-80
2023/02/23 00:34:48;;;;;;;20.92;9.63;;;3.60;99.90;;;1.79;93.06;101094.56;4956834;28;20033;-79
2023/02/23 00:37:23;;;;;;;26.77;10.57;;;3.60;99.90;;;1.87;93.16;101089.34;4943766;28;20045;-79
2023/02/23 00:39:50;;;;;;;23.40;10.07;;;3.50;99.90;;;1.81;93.17;101095.41;4903742;28;20030;-80
2023/02/23 00:42:16;;;;;;;28.15;10.63;;;3.60;99.90;;;1.77;93.05;101081.59;4958108;28;20034;-80
2023/02/23 00:44:51;;;;;;;17.08;7.55;;;3.60;99.90;;;1.81;93.42;101098.00;4939791;28;20041;-79
2023/02/23 00:47:16;;;;;;;22.25;9.18;;;3.60;99.90;;;1.75;93.44;101088.53;4972970;28;20019;-79
2023/02/23 00:49:43;;;;;;;29.65;11.68;;;3.50;99.90;;;1.78;93.19;101092.84;4946581;28;20725;-80
2023/02/23 00:52:17;;;;;;;21.05;10.10;;;3.50;99.90;;;1.76;93.56;101094.59;4954472;28;20023;-80
2023/02/23 00:54:43;;;;;;;32.25;11.88;;;3.50;99.90;;;1.75;93.17;101088.53;4947776;28;20680;-79
2023/02/23 00:57:09;;;;;;;25.20;11.30;;;3.50;99.90;;;1.78;93.30;101093.69;4960948;28;20041;-80
2023/02/23 00:59:45;;;;;;;;;;;;;;;;;;;;;
2023/02/23 01:02:11;;;;;;;26.42;10.88;;;3.50;99.90;;;1.74;92.96;101088.53;4959471;28;20574;-79
2023/02/23 01:04:37;;;;;;;24.02;11.05;;;3.50;99.90;;;1.65;93.59;101089.44;4959158;28;20098;-79
2023/02/23 01:07:05;;;;;;;28.65;11.43;;;3.40;99.90;;;1.53;93.56;101092.06;4969234;28;20038;-80
2023/02/23 01:09:34;;;;;;;18.20;9.27;;;3.30;99.90;;;1.52;93.45;101090.34;4944874;28;20049;-80
2023/02/23 01:12:00;;;;;;;21.95;10.07;;;3.30;99.90;;;1.50;93.79;101084.31;4949690;28;20486;-78
2023/02/23 01:14:27;;;;;;;26.13;11.63;;;3.30;99.90;;;1.64;93.87;101085.09;4969278;28;20099;-79
2023/02/23 01:16:54;;;;;;;31.25;12.02;;;3.30;99.90;;;1.63;93.72;101083.38;5000169;28;20036;-80
2023/02/23 01:19:20;;;;;;;28.83;12.27;;;3.30;99.90;;;1.57;93.58;101078.22;4961478;28;20478;-80
2023/02/23 01:21:55;;;;;;;24.90;9.43;;;3.30;99.90;;;1.53;93.47;101081.69;4939422;28;20041;-80
2023/02/23 01:24:21;;;;;;;27.83;11.77;;;3.30;99.90;;;1.52;93.67;101072.19;4987733;28;20486;-80
2023/02/23 01:26:47;;;;;;;35.30;12.40;;;3.30;99.90;;;1.44;93.89;101075.66;4957870;28;20108;-80
2023/02/23 01:29:20;;;;;;;31.48;12.60;;;3.30;99.90;;;1.50;93.91;101076.53;4948161;28;20048;-80
2023/02/23 01:31:51;;;;;;;24.63;10.50;;;3.20;99.90;;;1.44;93.85;101065.28;4978478;28;20044;-80
2023/02/23 01:34:22;;;;;;;26.15;10.75;;;3.20;99.90;;;1.41;93.67;101065.31;4982886;28;20033;-81
2023/02/23 01:36:48;;;;;;;25.63;12.43;;;3.10;99.90;;;1.35;93.90;101062.72;4986567;28;21426;-79
2023/02/23 01:39:19;;;;;;;28.55;13.23;;;3.20;99.90;;;1.43;93.91;101060.13;4963972;28;20034;-80
2023/02/23 01:41:53;;;;;;;25.67;12.25;;;3.20;99.90;;;1.42;93.96;101056.63;4972292;28;20025;-80
2023/02/23 01:44:18;;;;;;;24.83;12.07;;;3.20;99.90;;;1.36;93.82;101051.50;4979156;28;20037;-79
2023/02/23 01:46:45;;;;;;;18.08;7.80;;;3.10;99.90;;;1.23;93.96;101049.78;4976253;28;20026;-80
2023/02/23 01:49:25;;;;;;;28.88;13.45;;;3.10;99.90;;;1.26;94.29;101041.16;4977487;28;20085;-79
2023/02/23 01:52:15;;;;;;;31.38;13.25;;;3.10;99.90;;;1.26;94.01;101044.59;4977070;28;20113;-79
2023/02/23 01:54:59;;;;;;;31.27;13.63;;;3.00;99.90;;;1.21;94.37;101042.03;4975546;28;20105;-79
2023/02/23 01:57:25;;;;;;;19.80;9.35;;;3.00;99.90;;;1.21;94.49;101033.38;4968226;28;20045;-79
2023/02/23 01:59:52;;;;;;;26.42;13.05;;;3.00;99.90;;;1.21;94.61;101030.78;4979059;28;20029;-79
2023/02/23 02:02:31;;;;;;;32.25;14.23;;;3.00;99.90;;;1.21;94.62;101034.25;4970847;28;20046;-81
2023/02/23 02:05:04;;;;;;;28.48;13.48;;;2.90;99.90;;;1.17;94.79;101032.53;4964366;28;20116;-80
2023/02/23 02:07:33;;;;;;;30.13;13.38;;;2.90;99.90;;;1.13;94.84;101032.53;4931894;28;20030;-79
2023/02/23 02:12:50;;;;;;;29.67;13.68;;;2.90;99.90;;;1.13;94.82;101029.94;5001638;28;20582;-80
2023/02/23 02:15:19;;;;;;;27.35;13.35;;;2.80;99.90;;;1.10;94.70;101019.56;4973482;28;20048;-79
2023/02/23 02:18:29;;;;;;;42.13;9.80;;;2.90;99.90;;;0.96;95.12;101007.50;4965628;28;20052;-80
2023/02/23 02:21:06;;;;;;;30.63;14.02;;;2.80;99.90;;;1.02;95.24;101007.50;4970119;28;20041;-80
2023/02/23 02:23:59;;;;;;;30.17;14.52;;;2.80;99.90;;;1.07;95.46;101009.22;5019915;28;20116;-80
2023/02/23 02:26:55;;;;;;;33.92;14.18;;;2.80;99.90;;;1.01;95.52;100995.38;5004585;28;20044;-80
2023/02/23 02:29:43;;;;;;;34.08;15.07;;;2.80;99.90;;;0.97;95.80;101001.47;5001583;28;20133;-79
2023/02/23 02:32:49;;;;;;;27.77;14.23;;;2.70;99.90;;;0.94;96.02;100993.69;5010175;28;20037;-80
2023/02/23 02:35:33;;;;;;;36.80;15.00;;;2.70;99.90;;;0.87;96.54;100986.78;5002697;28;20041;-79
2023/02/23 02:38:19;;;;;;;28.48;14.38;;;2.70;99.90;;;0.88;96.56;100985.91;4987003;28;20042;-80
2023/02/23 02:41:06;;;;;;;26.45;12.75;;;2.70;99.90;;;0.84;96.76;100989.38;4997356;28;20048;-80
2023/02/23 02:44:11;;;;;;;31.70;14.20;;;2.70;99.90;;;0.90;96.99;100994.56;5006967;28;20044;-79
2023/02/23 02:46:48;;;;;;;37.58;14.65;;;2.70;99.90;;;0.93;96.96;100991.09;4976989;28;20037;-79
2023/02/23 02:49:28;;;;;;;29.35;14.38;;;2.70;99.90;;;0.93;96.98;100978.13;4939821;28;20603;-79
2023/02/23 02:52:24;;;;;;;38.28;16.05;;;2.70;99.90;;;0.97;96.72;100988.50;4925830;28;20088;-80
2023/02/23 02:55:00;;;;;;;29.95;12.73;;;2.70;99.90;;;0.88;96.90;100977.28;4970521;28;20037;-80
2023/02/23 02:57:29;;;;;;;31.00;15.73;;;2.70;99.90;;;0.91;97.07;100983.31;4940445;28;20044;-80
2023/02/23 04:17:56;;;;;;;36.28;18.60;;;2.20;99.90;;;0.39;100.00;100932.47;5008746;28;20502;-79
2023/02/23 04:20:23;;;;;;;40.97;19.67;;;2.20;99.90;;;0.41;100.00;100935.03;4979292;28;20498;-79
2023/02/23 04:22:49;;;;;;;38.13;19.27;;;2.20;99.90;;;0.40;100.00;100933.31;4959775;28;20030;-79
2023/02/23 04:25:21;;;;;;;40.47;17.42;;;2.20;99.90;;;0.34;100.00;100926.41;4944702;28;20046;-79
2023/02/23 04:27:48;;;;;;;41.72;19.48;;;2.20;99.90;;;0.36;100.00;100929.88;4927818;28;20447;-79
2023/02/23 04:30:14;;;;;;;42.78;19.92;;;2.20;99.90;;;0.36;100.00;100926.41;4948391;28;20061;-80
2023/02/23 04:32:40;;;;;;;30.10;13.35;;;2.20;99.90;;;0.35;100.00;100925.56;4953442;28;20033;-79
2023/02/23 04:35:12;;;;;;;30.20;13.10;;;2.10;99.90;;;0.20;100.00;100921.25;4943599;28;20038;-79
2023/02/23 04:37:38;;;;;;;40.30;16.50;;;2.10;99.90;;;0.17;100.00;100915.22;5004909;28;20037;-79
2023/02/23 04:40:06;;;;;;;41.10;19.92;;;2.10;99.90;;;0.28;100.00;100928.16;4962562;28;20042;-80
2023/02/23 04:42:32;;;;;;;42.15;20.38;;;2.10;99.90;;;0.28;100.00;100922.97;4956891;28;20409;-79
2023/02/23 04:45:09;;;;;;;45.05;21.33;;;2.10;99.90;;;0.29;100.00;100919.53;4972093;28;20030;-80
2023/02/23 04:47:35;;;;;;;44.85;21.83;;;2.00;99.90;;;0.30;100.00;100921.25;4989914;28;20282;-79
2023/02/23 04:50:01;;;;;;;45.92;19.80;;;2.00;99.90;;;0.24;100.00;100916.94;4931297;28;20109;-79
2023/02/23 04:52:33;;;;;;;44.55;20.90;;;2.00;99.90;;;0.26;100.00;100916.94;4950648;28;20034;-80
2023/02/23 04:55:00;;;;;;;37.80;17.75;;;2.00;99.90;;;0.18;100.00;100922.13;4962105;28;20112;-80
2023/02/23 04:57:26;;;;;;;42.15;20.67;;;1.90;99.90;;;0.07;100.00;100913.53;4953117;28;20105;-80
2023/02/23 04:59:52;;;;;;;38.58;18.48;;;2.20;99.90;;;0.09;100.00;100907.47;4985735;28;20093;-79
2023/02/23 05:02:23;;;;;;;48.13;21.30;;;1.90;99.90;;;0.14;100.00;100912.63;4964494;28;20116;-80
2023/02/23 05:04:49;;;;;;;37.55;19.05;;;1.90;99.90;;;0.07;100.00;100906.59;4963297;28;20033;-79
2023/02/23 05:07:15;;;;;;;51.47;22.20;;;1.90;99.90;;;0.08;100.00;100910.03;4940319;28;20671;-79
2023/02/23 05:09:41;;;;;;;30.77;14.30;;;1.90;99.90;;;-0.02;100.00;100904.03;4959025;28;20037;-79
2023/02/23 05:12:07;;;;;;;30.60;13.05;;;1.90;99.90;;;0.05;100.00;100915.25;4950187;28;20498;-80
2023/02/23 05:14:39;;;;;;;42.95;21.23;;;1.90;99.90;;;0.12;100.00;100910.03;4987114;28;20033;-80
2023/02/23 05:17:07;;;;;;;43.30;21.95;;;1.90;99.90;;;0.15;100.00;100912.66;4997136;28;20072;-80
2023/02/23 05:19:34;;;;;;;41.70;21.10;;;1.90;99.90;;;0.13;100.00;100906.59;4971178;28;20104;-79
2023/02/23 05:22:01;;;;;;;43.22;20.42;;;1.90;99.90;;;0.09;100.00;100912.66;4962423;28;20103;-80
2023/02/23 05:24:32;;;;;;;44.80;21.38;;;1.90;99.90;;;0.17;100.00;100916.09;4933385;28;20037;-80
2023/02/23 05:26:58;;;;;;;48.25;22.63;;;1.90;99.90;;;0.15;100.00;100907.47;4952122;28;20533;-79
2023/02/23 05:29:24;;;;;;;46.33;21.95;;;1.90;99.90;;;0.14;100.00;100912.63;4952751;28;20190;-79
2023/02/23 05:31:50;;;;;;;44.97;22.85;;;1.90;99.90;;;0.19;100.00;100913.47;4958034;28;20034;-79
2023/02/23 05:34:15;;;;;;;43.78;22.25;;;1.90;99.90;;;0.22;100.00;100912.59;4962942;28;20471;-80
2023/02/23 05:36:51;;;;;;;42.92;22.00;;;2.00;99.90;;;0.17;100.00;100908.31;4977967;28;20091;-79
2023/02/23 05:39:17;;;;;;;46.50;23.35;;;2.00;99.90;;;0.23;100.00;100909.19;4963601;28;20033;-80
2023/02/23 05:41:43;;;;;;;47.38;21.55;;;1.90;99.90;;;0.16;100.00;100908.31;4951266;28;20043;-80
2023/02/23 05:44:08;;;;;;;52.35;23.33;;;1.90;99.90;;;0.14;100.00;100904.88;4971262;28;20040;-79
2023/02/23 05:46:44;;;;;;;46.20;21.70;;;1.90;99.90;;;0.12;100.00;100898.81;4984366;28;20047;-80
2023/02/23 05:49:09;;;;;;;45.10;21.80;;;1.90;99.90;;;0.15;100.00;100897.09;4942602;28;20046;-79
2023/02/23 05:51:35;;;;;;;48.25;23.80;;;1.50;99.90;;;0.14;100.00;100900.53;4944781;28;20034;-80
2023/02/23 05:54:01;;;;;;;45.90;22.38;;;1.90;99.90;;;0.09;100.00;100901.44;4986559;28;20034;-79
2023/02/23 05:56:29;;;;;;;33.13;17.25;;;1.90;99.90;;;0.05;100.00;100899.72;4970325;28;20033;-80
2023/02/23 05:58:57;;;;;;;52.53;26.88;;;1.90;99.90;;;0.04;100.00;100890.19;4972390;28;20057;-79
2023/02/23 06:01:26;;;;;;;48.03;25.33;;;1.90;99.90;;;0.11;100.00;100895.38;4962202;28;20041;-79
2023/02/23 06:03:52;;;;;;;48.75;23.60;;;1.90;99.90;;;0.10;100.00;100897.97;4974203;28;20709;-79
2023/02/23 06:06:25;;;;;;;50.08;24.98;;;1.80;99.90;;;0.05;100.00;100900.56;4940608;28;20041;-80
2023/02/23 06:08:52;;;;;;;48.55;22.90;;;1.80;99.90;;;0.03;100.00;100891.94;4955144;28;20510;-79
2023/02/23 06:11:18;;;;;;;45.13;23.67;;;1.80;99.90;;;0.04;100.00;100892.78;4983745;28;20168;-81
2023/02/23 06:13:44;;;;;;;41.15;22.10;;;1.80;99.90;;;-0.05;100.00;100893.66;4976492;28;20026;-80
2023/02/23 06:16:12;;;;;;;48.95;22.42;;;1.80;99.90;;;-0.04;100.00;100891.06;4955287;28;20048;-79
2023/02/23 06:18:40;;;;;;;33.63;15.23;;;1.70;99.90;;;-0.10;100.00;100896.25;4939780;28;20557;-80
2023/02/23 06:21:06;;;;;;;51.83;23.30;;;1.70;99.90;;;0.03;100.00;100897.09;4960472;28;20403;-79
2023/02/23 06:23:32;;;;;;;53.67;24.92;;;1.80;99.90;;;0.09;100.00;100897.09;4989398;28;20033;-79
2023/02/23 06:25:58;;;;;;;52.35;22.92;;;1.80;99.90;;;0.12;100.00;100891.91;4972949;28;20045;-80
2023/02/23 06:28:35;;;;;;;49.55;21.85;;;1.80;99.90;;;0.12;100.00;100897.09;4942053;28;20053;-80
2023/02/23 06:31:01;;;;;;;48.10;21.98;;;1.90;99.90;;;0.19;100.00;100897.94;4927903;28;20038;-79
2023/02/23 06:33:38;;;;;;;50.55;24.00;;;1.90;99.90;;;0.25;100.00;100897.09;4956286;28;20036;-79
2023/02/23 06:36:04;;;;;;;51.53;22.95;;;2.00;99.90;;;0.33;100.00;100900.53;4953075;28;20037;-79
2023/02/23 06:38:30;;;;;;;43.85;22.83;;;2.00;99.90;;;0.31;100.00;100902.25;5002642;28;20049;-80
2023/02/23 06:40:56;;;;;;;44.67;20.33;;;2.00;99.90;;;0.33;100.00;100897.94;4956957;28;20191;-81
2023/02/23 06:43:22;;;;;;;47.05;21.98;;;2.10;99.90;;;0.41;100.00;100901.34;4963989;28;20156;-80
2023/02/23 06:45:48;;;;;;;53.42;23.48;;;2.10;99.90;;;0.50;100.00;100903.09;4969175;28;21248;-80
2023/02/23 06:48:14;;;;;;;46.40;21.20;;;2.20;99.90;;;0.45;100.00;100903.06;4957271;28;20068;-79
2023/02/23 06:50:47;;;;;;;42.55;20.92;;;2.20;99.90;;;0.55;100.00;100899.59;4967133;28;20026;-80
2023/02/23 06:53:12;;;;;;;44.92;22.35;;;2.30;99.90;;;0.76;100.00;100905.59;4955008;28;20042;-79
2023/02/23 06:55:38;;;;;;;34.00;15.95;;;2.40;99.90;;;0.76;100.00;100910.78;4965649;28;20060;-80
2023/02/23 06:58:05;;;;;;;44.67;21.52;;;2.50;99.90;;;0.77;100.00;100904.72;4976257;28;20049;-80
2023/02/23 07:00:31;;;;;;;49.65;25.27;;;2.50;99.90;;;0.88;100.00;100902.94;4946199;28;20102;-80
2023/02/23 07:03:02;;;;;;;45.90;22.95;;;2.60;99.90;;;0.98;100.00;100901.19;4940099;28;22363;-80
2023/02/23 07:05:28;;;;;;;54.25;26.65;;;2.70;99.90;;;1.09;100.00;100903.75;4960726;28;20144;-80
2023/02/23 07:07:54;;;;;;;48.75;23.40;;;2.70;99.90;;;1.09;100.00;100898.56;4938786;28;21800;-79
2023/02/23 07:10:20;;;;;;;48.40;23.08;;;2.70;99.90;;;1.16;100.00;100893.31;4977905;28;20049;-79
2023/02/23 07:12:46;;;;;;;44.35;22.33;;;2.80;99.90;;;1.18;100.00;100901.09;4983633;28;20041;-80
2023/02/23 07:15:21;;;;;;;46.58;23.00;;;2.90;99.90;;;1.29;100.00;100894.09;4970088;28;20033;-80
2023/02/23 07:17:48;;;;;;;45.70;22.33;;;2.90;99.90;;;1.26;99.80;100896.72;4979205;28;20096;-80
2023/02/23 07:20:15;;;;;;;46.95;22.40;;;2.90;99.90;;;1.28;99.37;100897.59;4969025;28;20072;-80
2023/02/23 07:22:46;;;;;;;46.33;21.63;;;3.00;99.90;;;1.62;98.55;100892.16;4990858;28;20037;-80
2023/02/23 07:25:12;;;;;;;46.83;22.95;;;3.10;99.90;;;1.74;97.91;100893.81;4968446;28;20103;-80
2023/02/23 07:27:38;;;;;;;42.28;21.88;;;3.10;99.90;;;1.85;96.82;100892.84;4931171;28;20498;-80
2023/02/23 07:30:05;;;;;;;44.25;21.55;;;3.30;99.90;;;2.04;95.74;100906.53;4979085;28;20053;-80
2023/02/23 07:32:36;;;;;;;44.22;22.67;;;3.30;99.90;;;1.91;95.46;100898.88;4949697;28;20478;-80
2023/02/23 07:35:04;;;;;;;42.00;22.35;;;3.40;99.90;;;1.95;94.96;100903.19;4948786;28;20430;-80
2023/02/23 07:37:30;;;;;;;46.03;22.50;;;3.40;99.90;;;1.95;94.86;100913.56;4975195;28;20029;-80
2023/02/23 07:39:56;;;;;;;47.45;22.10;;;3.50;99.90;;;1.97;94.64;100911.81;4982733;28;20037;-80
2023/02/23 07:42:22;;;;;;;42.28;21.33;;;3.50;99.90;;;1.99;94.47;100910.06;4968538;28;20568;-80
2023/02/23 07:44:55;;;;;;;48.75;23.55;;;3.60;99.90;;;2.09;94.54;100919.50;4971078;28;20034;-80
2023/02/23 07:47:29;;;;;;;46.45;22.05;;;3.60;99.90;;;2.02;94.10;100912.63;4942446;28;20385;-79
2023/02/23 07:49:58;;;;;;;44.20;20.80;;;3.70;99.90;;;2.05;93.94;100910.00;5011536;28;20041;-80
2023/02/23 07:52:24;;;;;;;50.13;22.80;;;3.70;99.90;;;2.00;93.86;100904.84;4956154;28;20093;-79
2023/02/23 07:54:50;;;;;;;47.00;22.20;;;3.60;99.90;;;2.02;94.26;100900.50;4966805;28;20033;-81
2023/02/23 07:57:16;;;;;;;46.13;22.73;;;3.60;99.90;;;2.01;94.05;100900.53;4974301;28;20037;-81
2023/02/23 07:59:50;;;;;;;46.15;21.27;;;3.60;99.90;;;1.97;93.96;100897.09;4971293;28;20087;-80
2023/02/23 08:02:16;;;;;;;44.60;21.92;;;3.60;99.90;;;1.98;94.01;100901.41;4957656;28;20030;-81
2023/02/23 08:04:42;;;;;;;45.33;21.58;;;3.60;99.90;;;1.93;94.20;100890.19;4948162;28;20105;-80
2023/02/23 08:07:09;;;;;;;46.38;22.42;;;3.70;99.90;;;2.10;94.14;100900.44;4967757;28;20026;-79
2023/02/23 08:09:38;;;;;;;47.22;22.33;;;3.70;99.90;;;2.14;94.21;100904.75;4931470;28;20030;-80
2023/02/23 08:12:07;;;;;;;48.70;21.85;;;3.80;99.90;;;2.25;93.98;100902.91;4957849;28;20043;-80
2023/02/23 08:14:32;;;;;;;50.40;22.30;;;3.80;99.90;;;2.51;93.30;100901.78;4956535;28;20030;-80
2023/02/23 08:17:00;;;;;;;41.00;21.92;;;4.00;99.90;;;2.79;92.48;100902.34;4943015;28;20040;-79
2023/02/23 08:19:26;;;;;;;42.97;21.80;;;4.20;99.90;;;3.03;91.59;100897.72;4960908;28;20038;-80
2023/02/23 08:22:02;;;;;;;42.35;21.67;;;4.40;99.90;;;3.25;90.33;100901.75;4957115;28;20048;-79
2023/02/23 08:24:29;;;;;;;43.08;21.50;;;4.50;99.90;;;3.35;89.27;100897.28;5008720;28;20612;-80
2023/02/23 08:27:04;;;;;;;43.33;21.17;;;4.70;99.90;;;3.60;88.42;100904.72;4968418;28;20041;-80
2023/02/23 08:29:30;;;;;;;43.13;21.20;;;4.90;99.90;;;3.73;87.46;100898.44;4976996;28;20029;-79
2023/02/23 08:31:56;;;;;;;40.67;20.17;;;5.10;99.90;;;3.93;86.73;100902.47;4951283;28;20052;-80
2023/02/23 08:34:31;;;;;;;40.55;20.30;;;5.20;99.90;;;4.07;85.51;100905.72;4965291;28;20041;-79
2023/02/23 08:36:58;;;;;;;43.38;20.92;;;5.40;99.90;;;4.31;84.93;100904.44;4973688;28;20041;-80
2023/02/23 08:39:24;;;;;;;42.70;21.83;;;5.70;99.90;;;4.78;83.93;100899.22;4986158;28;20045;-80
2023/02/23 08:41:51;;;;;;;41.08;20.23;;;6.00;99.90;;;5.19;83.03;100905.34;4978905;28;20030;-80
2023/02/23 08:44:22;;;;;;;41.50;20.27;;;6.30;99.90;;;5.35;81.29;100901.47;4983129;28;20072;-80
2023/02/23 08:46:48;;;;;;;42.72;20.63;;;6.50;99.90;;;5.19;80.90;100895.75;4981198;28;20391;-79
2023/02/23 08:49:14;;;;;;;43.55;21.50;;;6.50;99.90;;;5.21;80.35;100899.19;4989316;28;20119;-79
2023/02/23 08:51:40;;;;;;;43.47;20.33;;;6.60;99.90;;;5.22;80.52;100890.44;4979906;28;20508;-80
2023/02/23 08:54:15;;;;;;;37.60;20.05;;;6.60;99.90;;;5.34;80.10;100887.56;4965806;28;20065;-80
2023/02/23 08:56:42;;;;;;;41.15;20.88;;;6.60;99.90;;;5.27;80.09;100887.72;4959902;28;20625;-80
2023/02/23 08:59:10;;;;;;;39.92;20.35;;;6.70;99.90;;;5.45;79.82;100887.34;5008777;28;20034;-80
2023/02/23 09:01:38;;;;;;;40.97;20.63;;;6.80;99.90;;;5.73;79.33;100894.53;4967000;28;20038;-79
2023/02/23 09:04:05;;;;;;;35.08;20.00;;;7.10;99.90;;;6.10;78.62;100893.66;4970057;28;20124;-81
2023/02/23 09:06:34;;;;;;;41.80;20.45;;;7.20;99.90;;;6.07;77.25;100891.97;4973985;28;20119;-80
2023/02/23 09:09:00;;;;;;;40.45;21.20;;;7.40;99.90;;;6.32;76.88;100896.56;4977141;28;20939;-80
2023/02/23 09:11:36;;;;;;;45.05;19.13;;;7.70;99.90;;;6.71;76.02;100897.25;4973127;28;20690;-80
2023/02/23 09:14:05;;;;;;;45.72;21.33;;;7.90;99.90;;;6.85;75.20;100891.63;5009744;28;20050;-80
2023/02/23 09:16:37;;;;;;;38.10;19.75;;;8.20;99.90;;;7.21;74.94;100901.91;4999011;28;20033;-80
2023/02/23 09:19:06;;;;;;;41.67;20.17;;;8.30;99.90;;;7.08;73.64;100895.34;4982496;28;20030;-79
2023/02/23 09:21:33;;;;;;;39.97;19.50;;;8.30;99.90;;;6.69;74.67;100891.19;4979907;28;20092;-81
2023/02/23 09:24:01;;;;;;;39.33;20.48;;;8.10;99.90;;;6.50;75.01;100885.63;5021959;28;20087;-79
2023/02/23 09:26:33;;;;;;;40.95;20.63;;;7.90;99.90;;;6.46;75.27;100877.91;4946497;28;20100;-80
2023/02/23 09:29:08;;;;;;;39.30;20.08;;;7.80;99.90;;;6.39;75.81;100892.03;4984030;28;20057;-80
2023/02/23 09:31:37;;;;;;;46.80;20.20;;;7.80;99.90;;;6.49;76.40;100891.75;4990903;28;20041;-79
2023/02/23 09:34:03;;;;;;;44.28;19.98;;;7.80;99.90;;;6.62;76.04;100879.19;4966949;28;20057;-79
2023/02/23 09:36:37;;;;;;;36.38;19.15;;;7.80;99.90;;;6.80;76.26;100884.81;4960871;28;20045;-80
2023/02/23 09:39:03;;;;;;;36.90;19.75;;;8.00;99.90;;;6.93;75.71;100889.66;5004533;28;20041;-79
2023/02/23 09:41:50;;;;;;;38.63;19.42;;;8.10;99.90;;;7.19;74.99;100896.75;4999365;28;20053;-80
2023/02/23 09:44:55;;;;;;;40.42;19.73;;;8.30;99.90;;;7.31;74.95;100890.28;4985727;28;20402;-80
2023/02/23 09:47:54;;;;;;;40.58;20.35;;;8.40;99.90;;;7.34;74.18;100889.31;4979449;28;20051;-80
2023/02/23 09:50:30;;;;;;;46.97;19.65;;;8.50;99.90;;;7.54;74.50;100897.44;5005189;28;20029;-80
2023/02/23 09:53:46;;;;;;;36.47;18.73;;;8.60;99.90;;;7.58;73.71;100899.06;4988366;28;20124;-79
2023/02/23 09:56:38;;;;;;;43.00;19.13;;;8.80;99.90;;;7.74;73.48;100893.31;5004136;28;20037;-80
2023/02/23 09:59:14;;;;;;;40.83;18.75;;;8.80;99.90;;;7.60;73.74;100883.25;5001605;28;20059;-80
2023/02/23 10:02:22;;;;;;;44.17;19.67;;;8.80;99.90;;;7.66;73.36;100887.47;5011493;28;20088;-80
2023/02/23 10:05:13;;;;;;;41.30;18.77;;;8.90;99.90;;;7.58;73.20;100885.94;5035235;28;20124;-80
2023/02/23 10:07:54;;;;;;;37.85;18.58;;;8.90;99.90;;;7.64;73.77;100891.91;5019518;28;20037;-80
2023/02/23 10:10:49;;;;;;;40.58;18.52;;;8.80;99.90;;;7.72;73.72;100887.28;5005117;28;20026;-80
2023/02/23 10:13:43;;;;;;;41.17;19.35;;;8.90;99.90;;;7.95;74.11;100887.38;5020437;28;20144;-80
2023/02/23 10:16:43;;;;;;;32.17;18.58;;;9.00;99.90;;;7.97;73.22;100888.19;5007924;28;20045;-79
2023/02/23 10:19:43;;;;;;;47.45;20.63;;;9.10;99.90;;;7.95;73.02;100891.78;5026975;28;20056;-79
2023/02/23 10:22:16;;;;;;;38.70;18.88;;;9.10;99.90;;;7.74;73.41;100882.84;5002892;28;20033;-80
2023/02/23 10:24:56;;;;;;;41.72;19.90;;;9.00;99.90;;;7.68;73.24;100881.25;4986101;28;20068;-80
2023/02/23 10:27:36;;;;;;;41.30;19.65;;;9.00;99.90;;;7.80;74.39;100883.50;4997862;28;20112;-80
2023/02/23 10:30:13;;;;;;;38.22;19.38;;;9.00;99.90;;;7.84;73.73;100893.88;4971145;28;20116;-79
2023/02/23 10:33:00;;;;;;;37.33;19.63;;;9.00;99.90;;;7.93;73.71;100885.72;5000280;28;20029;-80
2023/02/23 10:35:33;;;;;;;41.92;19.80;;;9.10;99.90;;;8.00;74.18;100882.81;5023182;28;20041;-80
2023/02/23 10:38:05;;;;;;;41.47;19.27;;;9.20;99.90;;;8.00;73.53;100890.69;4981962;28;20490;-79
2023/02/23 10:40:43;;;;;;;40.03;20.52;;;9.20;99.90;;;7.86;73.52;100889.44;4964953;28;20425;-79
2023/02/23 10:43:12;;;;;;;41.42;19.77;;;9.20;99.90;;;7.79;73.58;100879.13;4966780;28;20037;-80
2023/02/23 10:45:56;;;;;;;44.72;19.70;;;9.10;99.90;;;7.80;73.89;100878.25;4993284;28;20094;-81
2023/02/23 10:48:41;;;;;;;40.03;19.10;;;9.00;99.90;;;7.78;74.25;100884.44;5015196;28;20056;-79
2023/02/23 10:51:19;;;;;;;41.97;20.08;;;9.00;99.90;;;7.68;75.03;100876.00;5027487;28;20112;-80
2023/02/23 10:53:45;;;;;;;38.90;19.60;;;9.00;99.90;;;7.64;74.67;100876.16;4990989;28;20025;-80
2023/02/23 10:56:14;;;;;;;42.58;19.70;;;9.00;99.90;;;7.77;74.79;100882.72;5010336;28;20026;-80
2023/02/23 10:58:48;;;;;;;40.83;20.17;;;9.00;99.90;;;7.79;75.19;100871.28;4968697;28;20038;-80
2023/02/23 11:01:48;;;;;;;43.17;19.73;;;9.00;99.90;;;7.74;74.96;100867.97;4977285;28;20128;-79
2023/02/23 11:04:33;;;;;;;49.35;20.95;;;9.00;99.90;;;7.67;75.44;100870.84;5011815;28;20085;-80
2023/02/23 11:07:17;;;;;;;51.10;21.17;;;9.00;99.90;;;7.62;75.23;100865.72;4981180;28;20034;-79
2023/02/23 11:09:45;;;;;;;46.17;20.10;;;8.90;99.90;;;7.62;75.81;100867.50;4981131;28;20034;-79
2023/02/23 11:12:49;;;;;;;48.00;20.98;;;8.90;99.90;;;7.69;75.40;100863.75;4965128;28;20614;-79
2023/02/23 11:15:32;;;;;;;59.22;21.55;;;8.90;99.90;;;7.75;75.49;100855.69;4954307;28;20033;-80
2023/02/23 11:18:04;;;;;;;48.10;20.65;;;9.00;99.90;;;7.77;75.88;100856.50;5022314;28;20049;-80
2023/02/23 11:20:42;;;;;;;51.80;20.75;;;9.00;99.90;;;7.67;75.58;100842.00;4998482;28;20410;-79
2023/02/23 11:23:27;;;;;;;59.63;20.77;;;9.00;99.90;;;7.72;75.85;100840.94;4986058;28;20041;-79
2023/02/23 11:25:59;;;;;;;44.67;20.95;;;9.00;99.90;;;7.67;76.33;100845.47;4992451;28;20053;-80
2023/02/23 11:28:39;;;;;;;53.17;21.60;;;9.00;99.90;;;7.71;76.95;100839.25;4972918;28;20049;-80
2023/02/23 11:31:27;;;;;;;55.92;21.95;;;9.00;99.90;;;7.83;76.54;100844.97;5023313;28;20060;-79
2023/02/23 11:33:57;;;;;;;54.47;20.75;;;9.10;99.90;;;7.92;76.67;100845.50;5022021;28;20029;-80
2023/02/23 11:36:37;;;;;;;55.13;21.88;;;9.10;99.90;;;7.97;76.81;100838.38;4994129;28;20049;-79
2023/02/23 11:39:20;;;;;;;55.60;22.02;;;9.20;99.90;;;7.87;77.21;100834.34;4983779;28;20059;-80
2023/02/23 11:42:02;;;;;;;62.33;23.70;;;9.10;99.90;;;7.74;77.22;100827.78;5016656;28;20501;-80
2023/02/23 11:44:28;;;;;;;71.32;24.73;;;9.10;99.90;;;7.74;77.90;100839.13;4995850;28;20029;-80
2023/02/23 11:47:00;;;;;;;74.63;25.27;;;9.00;99.90;;;7.62;78.19;100836.03;4977916;28;20037;-80
2023/02/23 11:49:38;;;;;;;65.32;23.58;;;9.00;99.90;;;7.57;78.17;100826.56;5004425;28;20033;-80
2023/02/23 11:52:17;;;;;;;73.32;25.08;;;8.90;99.90;;;7.46;79.00;100817.34;4949572;28;20037;-80
2023/02/23 11:55:04;;;;;;;59.83;23.40;;;8.80;99.90;;;7.30;78.96;100816.97;4968880;28;20037;-80
2023/02/23 11:57:36;;;;;;;60.28;23.00;;;8.80;99.90;;;7.35;79.09;100809.84;4998985;28;20043;-79